createdAt,value
2023-08-27T00:00:25.721Z,18.64
2023-08-27T00:12:26.190Z,18.51
2023-08-27T00:24:26.738Z,18.76
2023-08-27T00:36:27.118Z,18.40
2023-08-27T00:48:27.581Z,18.34
2023-08-27T01:00:28.011Z,18.33
2023-08-27T01:12:28.507Z,18.28
2023-08-27T01:24:28.922Z,18.12
2023-08-27T01:36:29.381Z,18.02
2023-08-27T01:48:29.866Z,18.00
2023-08-27T02:00:30.337Z,17.85
2023-08-27T02:12:30.753Z,17.49
2023-08-27T02:24:31.193Z,17.50
2023-08-27T02:36:31.650Z,17.61
2023-08-27T02:48:32.161Z,17.45
2023-08-27T03:00:32.609Z,17.28
2023-08-27T03:12:33.042Z,17.40
2023-08-27T03:24:33.501Z,17.19
2023-08-27T03:36:33.981Z,17.02
2023-08-27T03:48:34.371Z,17.12
2023-08-27T04:00:34.829Z,16.95
2023-08-27T04:12:37.497Z,17.03
2023-08-27T04:24:35.822Z,16.89
2023-08-27T04:36:36.193Z,16.98
2023-08-27T04:48:36.653Z,16.91
2023-08-27T05:00:37.129Z,17.21
2023-08-27T05:12:37.640Z,17.67
2023-08-27T05:24:38.028Z,17.85
2023-08-27T05:36:38.514Z,18.65
2023-08-27T05:48:38.939Z,19.19
2023-08-27T06:00:39.402Z,19.58
2023-08-27T06:12:39.865Z,20.23
2023-08-27T06:24:40.352Z,20.56
2023-08-27T06:36:40.750Z,20.91
2023-08-27T06:48:41.274Z,21.07
2023-08-27T07:00:41.685Z,21.50
2023-08-27T07:12:42.127Z,21.47
2023-08-27T07:24:42.584Z,22.33
2023-08-27T07:36:43.046Z,22.84
2023-08-27T07:48:43.494Z,24.16
2023-08-27T08:00:43.981Z,23.24
2023-08-27T08:12:44.388Z,24.09
2023-08-27T08:24:44.861Z,24.91
2023-08-27T08:36:45.334Z,25.39
2023-08-27T08:48:45.756Z,25.83
2023-08-27T09:00:46.228Z,26.03
2023-08-27T09:12:46.690Z,26.57
2023-08-27T09:24:47.132Z,27.04
2023-08-27T09:36:47.630Z,27.57
2023-08-27T09:48:48.075Z,29.12
2023-08-27T10:00:48.503Z,27.82
2023-08-27T10:12:48.978Z,28.11
2023-08-27T10:24:49.424Z,28.86
2023-08-27T10:36:49.869Z,27.90
2023-08-27T10:48:50.364Z,28.39
2023-08-27T11:00:50.848Z,28.11
2023-08-27T11:12:51.229Z,28.32
2023-08-27T11:24:51.707Z,29.04
2023-08-27T11:36:52.212Z,30.17
2023-08-27T11:48:52.603Z,30.06
2023-08-27T12:00:54.231Z,30.99
2023-08-27T12:12:53.564Z,29.83
2023-08-27T12:24:54.030Z,30.02
2023-08-27T12:36:54.492Z,30.42
2023-08-27T12:48:54.937Z,30.63
2023-08-27T13:00:55.347Z,31.55
2023-08-27T13:12:55.818Z,31.08
2023-08-27T13:24:56.260Z,30.66
2023-08-27T13:36:56.814Z,31.49
2023-08-27T13:48:57.187Z,31.71
2023-08-27T14:00:57.673Z,31.32
2023-08-27T14:12:58.102Z,32.22
2023-08-27T14:24:58.552Z,33.24
2023-08-27T14:36:59.058Z,31.89
2023-08-27T14:48:59.480Z,32.18
2023-08-27T15:00:59.978Z,31.69
2023-08-27T15:13:00.386Z,31.40
2023-08-27T15:25:00.845Z,31.38
2023-08-27T15:37:01.314Z,29.29
2023-08-27T15:49:01.780Z,27.13
2023-08-27T16:01:02.284Z,28.09
2023-08-27T16:13:02.702Z,27.40
2023-08-27T16:25:03.170Z,26.60
2023-08-27T16:37:03.617Z,26.51
2023-08-27T16:49:04.073Z,24.95
2023-08-27T17:01:04.497Z,25.18
2023-08-27T17:13:05.007Z,25.03
2023-08-27T17:25:05.425Z,24.48
2023-08-27T17:37:05.874Z,24.76
2023-08-27T17:49:06.336Z,23.92
2023-08-27T18:01:06.852Z,23.57
2023-08-27T18:13:07.271Z,23.29
2023-08-27T18:25:07.717Z,22.67
2023-08-27T18:37:08.159Z,22.29
2023-08-27T18:49:08.672Z,21.71
2023-08-27T19:01:09.130Z,21.58
2023-08-27T19:13:09.527Z,20.98
2023-08-27T19:25:10.029Z,21.16
2023-08-27T19:37:10.451Z,21.06
2023-08-27T19:49:10.915Z,20.42
2023-08-27T20:01:11.339Z,20.03
2023-08-27T20:13:11.856Z,19.76
2023-08-27T20:25:12.301Z,20.13
2023-08-27T20:37:12.716Z,19.48
2023-08-27T20:49:13.240Z,19.19
2023-08-27T21:01:13.705Z,19.35
2023-08-27T21:13:14.101Z,18.81
2023-08-27T21:25:14.540Z,18.75
2023-08-27T21:37:15.993Z,18.55
2023-08-27T21:49:15.432Z,18.41
2023-08-27T22:01:16.108Z,18.32
2023-08-27T22:13:16.349Z,18.28
2023-08-27T22:25:16.820Z,18.26
2023-08-27T22:37:17.258Z,18.26
2023-08-27T22:49:17.781Z,17.84
2023-08-27T23:01:18.253Z,17.71
2023-08-27T23:13:18.691Z,17.72
2023-08-27T23:25:19.111Z,17.77
2023-08-27T23:37:19.579Z,17.62
2023-08-27T23:49:19.982Z,17.35
